createdAt,value
2022-07-26T00:01:49.430Z,155897.78
2022-07-26T00:04:16.959Z,155953.69
2022-07-26T00:06:44.461Z,155834.06
2022-07-26T00:09:12.034Z,155876.91
2022-07-26T00:11:40.983Z,155845.75
2022-07-26T00:14:09.757Z,155900.41
2022-07-26T00:16:38.458Z,155858.75
2022-07-26T00:19:07.739Z,155899.09
2022-07-26T00:21:36.893Z,155862.66
2022-07-26T00:24:09.460Z,155887.34
2022-07-26T00:26:37.256Z,155845.75
2022-07-26T00:29:06.946Z,155860.06
2022-07-26T00:31:34.639Z,155796.34
2022-07-26T00:34:02.124Z,155804.16
2022-07-26T00:36:29.763Z,155828.84
2022-07-26T00:38:57.255Z,155770.38
2022-07-26T00:41:24.838Z,155804.16
2022-07-26T00:43:57.711Z,155775.59
2022-07-26T00:46:26.940Z,155801.56
2022-07-26T00:48:54.611Z,155793.78
2022-07-26T00:51:22.823Z,155767.75
2022-07-26T00:53:50.532Z,155770.38
2022-07-26T00:56:18.512Z,155721.00
2022-07-26T00:58:45.955Z,155752.22
2022-07-26T01:01:13.571Z,155775.59
2022-07-26T01:03:42.823Z,155843.16
2022-07-26T01:06:10.489Z,155824.94
2022-07-26T01:08:37.967Z,155734.00
2022-07-26T01:11:05.610Z,155754.75
2022-07-26T01:13:35.545Z,155771.66
2022-07-26T01:16:03.456Z,155759.97
2022-07-26T01:18:31.008Z,155709.31
2022-07-26T01:21:13.036Z,155728.78
2022-07-26T01:23:42.947Z,155741.78
2022-07-26T01:26:11.003Z,155711.94
2022-07-26T01:28:39.562Z,155698.91
2022-07-26T01:31:07.774Z,155683.28
2022-07-26T01:33:36.002Z,155665.09
2022-07-26T01:36:03.620Z,155615.75
2022-07-26T01:38:31.081Z,155645.59
2022-07-26T01:40:59.983Z,155674.16
2022-07-26T01:43:27.946Z,155644.34
2022-07-26T01:45:55.566Z,155585.88
2022-07-26T01:48:23.255Z,155483.19
2022-07-26T01:50:50.709Z,155513.13
2022-07-26T01:53:18.168Z,155510.53
2022-07-26T01:55:45.652Z,155575.50
2022-07-26T01:58:14.604Z,155552.09
2022-07-26T02:00:42.056Z,155572.88
2022-07-26T02:03:09.740Z,155576.78
2022-07-26T02:05:37.287Z,155601.47
2022-07-26T02:08:05.012Z,155568.97
2022-07-26T02:10:46.911Z,155540.41
2022-07-26T02:13:16.407Z,155562.50
2022-07-26T02:15:43.916Z,155623.53
2022-07-26T02:18:11.389Z,155593.66
2022-07-26T02:20:38.806Z,155518.34
2022-07-26T02:23:06.513Z,155518.34
2022-07-26T02:25:34.013Z,155505.31
2022-07-26T02:28:01.879Z,155505.31
2022-07-26T02:30:30.620Z,155541.69
2022-07-26T02:32:58.056Z,155480.66
2022-07-26T02:35:25.678Z,155496.19
2022-07-26T02:37:53.071Z,155548.22
2022-07-26T02:40:20.715Z,155545.63
2022-07-26T02:42:48.184Z,155480.66
2022-07-26T02:45:15.715Z,155461.16
2022-07-26T02:47:49.228Z,155417.00
2022-07-26T02:50:17.968Z,155417.00
2022-07-26T02:52:46.939Z,155515.72
2022-07-26T02:55:15.010Z,155440.41
2022-07-26T02:57:46.659Z,155401.41
2022-07-26T03:00:16.079Z,155435.19
2022-07-26T03:02:43.780Z,155504.00
2022-07-26T03:05:12.671Z,155530.03
2022-07-26T03:07:40.079Z,155552.09
2022-07-26T03:10:08.730Z,155492.31
2022-07-26T03:12:36.358Z,155537.78
2022-07-26T03:15:04.064Z,155449.47
2022-07-26T03:17:32.121Z,155442.97
2022-07-26T03:20:00.031Z,155424.81
2022-07-26T03:22:28.771Z,155343.03
2022-07-26T03:24:56.213Z,155300.16
2022-07-26T03:27:23.627Z,155271.59
2022-07-26T03:29:51.075Z,155294.94
2022-07-26T03:32:18.549Z,155300.16
2022-07-26T03:34:45.971Z,155289.78
2022-07-26T03:37:13.442Z,155332.66
2022-07-26T03:39:42.185Z,155414.44
2022-07-26T03:42:09.636Z,155409.22
2022-07-26T03:44:37.107Z,155330.06
2022-07-26T03:47:04.602Z,155327.44
2022-07-26T03:49:32.190Z,155401.41
2022-07-26T03:51:59.618Z,155378.06
2022-07-26T03:54:27.157Z,155437.78
2022-07-26T03:56:54.938Z,155450.78
2022-07-26T03:59:24.076Z,155474.13
2022-07-26T04:01:51.646Z,155401.41
2022-07-26T04:04:19.607Z,155372.91
2022-07-26T04:06:52.910Z,155374.16
2022-07-26T04:09:20.461Z,155371.59
2022-07-26T04:11:48.577Z,155413.13
2022-07-26T04:14:17.368Z,155401.41
2022-07-26T04:16:44.827Z,155397.56
2022-07-26T04:19:12.388Z,155442.97
2022-07-26T04:21:39.803Z,155449.47
2022-07-26T04:24:08.274Z,155472.81
2022-07-26T04:26:35.980Z,155429.97
2022-07-26T04:29:03.436Z,155481.94
2022-07-26T04:31:34.942Z,155504.00
2022-07-26T04:34:04.067Z,155498.78
2022-07-26T04:36:31.532Z,155441.72
2022-07-26T04:38:58.952Z,155435.19
2022-07-26T04:41:26.365Z,155420.91
2022-07-26T04:43:53.767Z,155452.09
2022-07-26T04:46:21.262Z,155485.81
2022-07-26T04:48:50.157Z,155488.41
2022-07-26T04:51:17.669Z,155422.22
2022-07-26T04:53:45.111Z,155442.97
2022-07-26T04:56:12.856Z,155474.13
2022-07-26T04:58:40.319Z,155466.38
2022-07-26T05:01:10.327Z,155531.31
2022-07-26T05:03:38.353Z,155515.72
2022-07-26T05:06:07.816Z,155562.50
2022-07-26T05:08:35.278Z,155614.44
2022-07-26T05:11:04.053Z,155646.91
2022-07-26T05:13:31.473Z,155619.63
2022-07-26T05:15:59.251Z,155541.69
2022-07-26T05:18:26.721Z,155528.72
2022-07-26T05:20:54.207Z,155494.94
2022-07-26T05:23:22.978Z,155527.41
2022-07-26T05:25:50.759Z,155576.78
2022-07-26T05:28:18.187Z,155674.16
2022-07-26T05:30:46.014Z,155682.00
2022-07-26T05:33:16.713Z,155630.03
2022-07-26T05:35:44.376Z,155580.66
2022-07-26T05:38:12.000Z,155549.53
2022-07-26T05:40:40.737Z,155623.53
2022-07-26T05:43:23.175Z,155682.00
2022-07-26T05:45:51.285Z,155689.75
2022-07-26T05:48:20.632Z,155675.47
2022-07-26T05:50:48.107Z,155731.41
2022-07-26T05:53:17.491Z,155796.34
2022-07-26T05:55:46.323Z,155763.91
2022-07-26T05:58:13.965Z,155824.94
2022-07-26T06:00:45.464Z,155856.16
2022-07-26T06:03:24.530Z,155897.78
2022-07-26T06:05:53.713Z,155814.56
2022-07-26T06:08:22.069Z,155791.19
2022-07-26T06:10:51.390Z,155848.38
2022-07-26T06:13:19.122Z,155893.81
2022-07-26T06:15:47.319Z,155845.75
2022-07-26T06:21:07.885Z,155857.44
2022-07-26T06:23:35.408Z,155796.34
2022-07-26T06:26:05.141Z,155895.13
2022-07-26T06:28:32.833Z,155861.38
2022-07-26T06:31:00.271Z,155871.75
2022-07-26T06:33:27.764Z,155896.44
2022-07-26T06:35:55.194Z,155960.16
2022-07-26T06:38:22.671Z,155942.00
2022-07-26T06:40:50.090Z,155955.00
2022-07-26T06:43:18.846Z,156025.22
2022-07-26T06:45:46.396Z,156064.22
2022-07-26T06:48:14.269Z,155981.00
2022-07-26T06:50:42.225Z,155996.59
2022-07-26T06:53:09.622Z,156025.22
2022-07-26T06:55:37.030Z,156066.78
2022-07-26T06:58:04.492Z,156079.81
2022-07-26T07:00:33.506Z,156194.28
2022-07-26T07:03:01.114Z,156288.00
2022-07-26T07:05:31.031Z,156248.94
2022-07-26T07:07:58.801Z,156246.31
2022-07-26T07:10:26.263Z,156271.06
2022-07-26T07:12:53.689Z,156183.91
2022-07-26T07:15:21.350Z,156174.81
2022-07-26T07:17:51.727Z,156290.63
2022-07-26T07:20:19.178Z,156290.63
2022-07-26T07:22:47.032Z,156379.13
2022-07-26T07:25:14.898Z,156414.25
2022-07-26T07:27:42.700Z,156465.03
2022-07-26T07:30:12.129Z,156508.00
2022-07-26T07:32:39.868Z,156376.50
2022-07-26T07:35:12.675Z,156574.38
2022-07-26T07:37:53.085Z,156485.91
2022-07-26T07:40:21.797Z,156349.19
2022-07-26T07:42:50.141Z,156472.88
2022-07-26T07:45:17.627Z,156476.75
2022-07-26T07:47:45.062Z,156435.03
2022-07-26T07:50:13.875Z,156407.72
2022-07-26T07:52:41.337Z,156496.28
2022-07-26T07:55:41.388Z,156468.97
2022-07-26T07:57:57.480Z,156363.50
2022-07-26T08:00:27.155Z,156288.00
2022-07-26T08:02:55.063Z,156405.16
2022-07-26T08:05:23.783Z,156454.63
2022-07-26T08:07:52.464Z,156392.13
2022-07-26T08:10:20.145Z,156312.72
2022-07-26T08:12:47.757Z,156379.13
2022-07-26T08:15:21.204Z,156383.00
2022-07-26T08:17:51.325Z,156325.72
2022-07-26T08:20:25.020Z,156259.31
2022-07-26T08:22:52.845Z,156359.59
2022-07-26T08:25:20.481Z,156419.47
2022-07-26T08:28:03.281Z,156346.56
2022-07-26T08:30:31.387Z,156411.63
2022-07-26T08:32:58.941Z,156375.22
2022-07-26T08:35:29.440Z,156377.81
2022-07-26T08:38:00.473Z,156269.81
2022-07-26T08:40:27.914Z,156117.56
2022-07-26T08:42:56.783Z,156029.06
2022-07-26T08:45:24.842Z,156004.38
2022-07-26T08:48:16.098Z,156036.91
2022-07-26T08:50:42.260Z,156036.91
2022-07-26T08:53:12.857Z,156079.81
2022-07-26T08:56:05.483Z,156252.84
2022-07-26T08:58:27.872Z,156222.91
2022-07-26T09:01:05.642Z,156328.34
2022-07-26T09:03:33.345Z,156267.22
2022-07-26T09:06:17.271Z,156254.16
2022-07-26T09:08:46.281Z,156302.31
2022-07-26T09:11:31.396Z,156204.69
2022-07-26T09:14:00.778Z,156276.31
2022-07-26T09:16:29.712Z,156407.72
2022-07-26T09:19:16.829Z,156420.72
2022-07-26T09:21:46.966Z,156392.13
2022-07-26T09:24:15.213Z,156574.38
2022-07-26T09:26:56.042Z,156623.94
2022-07-26T09:29:23.512Z,156670.81
2022-07-26T09:31:51.028Z,156709.88
2022-07-26T09:34:25.732Z,156954.88
2022-07-26T09:36:55.739Z,156715.09
2022-07-26T09:39:33.682Z,156618.72
2022-07-26T09:42:27.583Z,156629.13
2022-07-26T09:44:56.299Z,156544.44
2022-07-26T09:47:24.144Z,156485.91
2022-07-26T09:50:11.740Z,156603.03
2022-07-26T09:52:41.030Z,156599.13
2022-07-26T09:55:10.209Z,156552.28
2022-07-26T09:57:37.799Z,156565.28
2022-07-26T10:00:07.787Z,156692.94
2022-07-26T10:02:35.559Z,156846.69
2022-07-26T10:05:03.103Z,156932.72
2022-07-26T10:07:30.962Z,156858.41
2022-07-26T10:10:04.536Z,156691.66
2022-07-26T10:12:33.998Z,156666.88
2022-07-26T10:15:02.375Z,156704.69
2022-07-26T10:17:50.881Z,156748.94
2022-07-26T10:20:40.772Z,156931.41
2022-07-26T10:23:36.489Z,156896.25
2022-07-26T10:26:07.387Z,156980.94
2022-07-26T10:28:38.949Z,157073.47
2022-07-26T10:31:31.174Z,157080.03
2022-07-26T10:34:00.685Z,157033.06
2022-07-26T10:36:31.255Z,157050.03
2022-07-26T10:39:04.577Z,156866.25
2022-07-26T10:41:35.508Z,156861.03
2022-07-26T10:44:24.198Z,157098.34
2022-07-26T10:47:15.699Z,157035.69
2022-07-26T10:49:53.119Z,157111.38
2022-07-26T10:52:22.759Z,157226.09
2022-07-26T10:55:23.144Z,157007.00
2022-07-26T10:57:51.881Z,157207.84
2022-07-26T11:00:24.509Z,157087.81
2022-07-26T11:02:58.330Z,157168.75
2022-07-26T11:05:31.111Z,157120.50
2022-07-26T11:08:08.131Z,156986.19
2022-07-26T11:10:38.644Z,157007.00
2022-07-26T11:13:16.871Z,157038.31
2022-07-26T11:15:47.648Z,157012.25
2022-07-26T11:18:23.491Z,156934.00
2022-07-26T11:20:54.705Z,157093.06
2022-07-26T11:23:27.875Z,157248.28
2022-07-26T11:26:13.832Z,157171.31
2022-07-26T11:28:51.163Z,157200.00
2022-07-26T11:31:20.205Z,157239.13
2022-07-26T11:33:50.871Z,157090.44
2022-07-26T11:36:19.929Z,157334.38
2022-07-26T11:38:49.301Z,157243.06
2022-07-26T11:41:19.956Z,156999.22
2022-07-26T11:44:05.250Z,156970.53
2022-07-26T11:46:35.215Z,156965.31
2022-07-26T11:49:04.514Z,157060.44
2022-07-26T11:51:31.970Z,157171.31
2022-07-26T11:54:02.324Z,157110.06
2022-07-26T11:56:31.329Z,157073.47
2022-07-26T11:58:59.771Z,157170.00
2022-07-26T12:01:29.444Z,157009.63
2022-07-26T12:03:57.634Z,157022.66
2022-07-26T12:06:26.892Z,157112.69
2022-07-26T12:08:56.418Z,157209.19
2022-07-26T12:11:26.396Z,157246.97
2022-07-26T12:13:59.292Z,157260.06
2022-07-26T12:16:46.174Z,157082.66
2022-07-26T12:19:29.771Z,157151.78
2022-07-26T12:21:59.662Z,157087.81
2022-07-26T12:24:55.741Z,157025.28
2022-07-26T12:27:24.711Z,157145.25
2022-07-26T12:29:55.040Z,157200.00
2022-07-26T12:32:25.583Z,157129.59
2022-07-26T12:34:58.491Z,157132.22
2022-07-26T12:37:36.327Z,157196.13
2022-07-26T12:40:10.504Z,157220.91
2022-07-26T12:42:39.653Z,157114.00
2022-07-26T12:45:10.077Z,157134.81
2022-07-26T12:47:40.329Z,157213.03
2022-07-26T12:50:09.506Z,157086.56
2022-07-26T12:52:37.204Z,157277.03
2022-07-26T12:55:07.618Z,157307.00
2022-07-26T12:57:36.925Z,157360.47
2022-07-26T13:00:06.391Z,157284.84
2022-07-26T13:02:33.872Z,157156.97
2022-07-26T13:05:04.392Z,157250.84
2022-07-26T13:07:32.489Z,157213.03
2022-07-26T13:10:30.363Z,157310.91
2022-07-26T13:12:47.627Z,157442.69
2022-07-26T13:15:15.189Z,157504.03
2022-07-26T13:17:42.612Z,157339.63
2022-07-26T13:20:11.833Z,157244.34
2022-07-26T13:22:40.737Z,157098.34
2022-07-26T13:25:09.066Z,157080.03
2022-07-26T13:27:39.079Z,156957.50
2022-07-26T13:30:09.686Z,156928.78
2022-07-26T13:32:37.267Z,156975.78
2022-07-26T13:35:04.958Z,156960.13
2022-07-26T13:37:33.708Z,156928.78
2022-07-26T13:40:01.192Z,156905.34
2022-07-26T13:42:29.146Z,156884.47
2022-07-26T13:44:56.685Z,156926.16
2022-07-26T13:47:24.090Z,157001.84
2022-07-26T13:49:51.516Z,156969.22
2022-07-26T13:52:18.981Z,156962.75
2022-07-26T13:54:47.730Z,157026.59
2022-07-26T13:57:15.224Z,156845.38
2022-07-26T13:59:42.718Z,156871.44
2022-07-26T14:02:10.243Z,156997.91
2022-07-26T14:04:37.729Z,157003.13
2022-07-26T14:07:05.135Z,156907.97
2022-07-26T14:09:32.591Z,157047.41
2022-07-26T14:12:01.328Z,156962.75
2022-07-26T14:14:28.735Z,157004.44
2022-07-26T14:16:56.181Z,157025.28
2022-07-26T14:19:23.664Z,156977.09
2022-07-26T14:21:59.588Z,156973.16
2022-07-26T14:24:28.157Z,156917.06
2022-07-26T14:26:59.283Z,156914.44
2022-07-26T14:29:29.005Z,156949.72
2022-07-26T14:31:56.557Z,156941.88
2022-07-26T14:34:24.104Z,156957.50
2022-07-26T14:36:51.523Z,157037.00
2022-07-26T14:39:20.479Z,157076.09
2022-07-26T14:41:48.060Z,157129.59
2022-07-26T14:44:15.533Z,157060.44
2022-07-26T14:46:46.280Z,157007.00
2022-07-26T14:49:13.801Z,156909.25
2022-07-26T14:51:41.289Z,156993.97
2022-07-26T14:54:09.765Z,157018.78
2022-07-26T14:56:37.410Z,156914.44
2022-07-26T14:59:04.841Z,156774.97
2022-07-26T15:01:32.373Z,156781.56
2022-07-26T15:04:01.257Z,156872.75
2022-07-26T15:06:28.687Z,156831.06
2022-07-26T15:08:56.271Z,156827.19
2022-07-26T15:11:23.761Z,156840.22
2022-07-26T15:13:51.195Z,156838.91
2022-07-26T15:16:18.688Z,156814.16
2022-07-26T15:18:46.147Z,156754.16
2022-07-26T15:21:16.933Z,156801.09
2022-07-26T15:23:44.492Z,156741.16
2022-07-26T15:26:11.980Z,156819.34
2022-07-26T15:28:39.445Z,156827.19
2022-07-26T15:31:06.951Z,156816.72
2022-07-26T15:33:35.296Z,156805.00
2022-07-26T15:36:05.890Z,156864.97
2022-07-26T15:38:34.952Z,156798.53
2022-07-26T15:41:02.679Z,156818.03
2022-07-26T15:43:49.001Z,156755.47
2022-07-26T15:46:17.135Z,156704.69
2022-07-26T15:48:45.552Z,156676.03
2022-07-26T15:51:14.893Z,156626.50
2022-07-26T15:53:46.418Z,156595.25
2022-07-26T15:56:14.598Z,156528.84
2022-07-26T15:58:42.029Z,156493.69
2022-07-26T16:01:09.526Z,156537.94
2022-07-26T16:03:36.995Z,156452.03
2022-07-26T16:06:06.208Z,156453.34
2022-07-26T16:08:33.861Z,156480.66
2022-07-26T16:11:05.692Z,156467.66
2022-07-26T16:13:33.095Z,156399.91
2022-07-26T16:16:00.673Z,156342.66
2022-07-26T16:18:28.245Z,156346.56
2022-07-26T16:20:55.649Z,156286.69
2022-07-26T16:23:23.080Z,156282.84
2022-07-26T16:25:50.885Z,156212.53
2022-07-26T16:28:19.770Z,156233.31
2022-07-26T16:30:47.322Z,156259.31
2022-07-26T16:33:14.765Z,156261.94
2022-07-26T16:35:42.479Z,156319.25
2022-07-26T16:38:09.913Z,156303.63
2022-07-26T16:40:37.453Z,156295.84
2022-07-26T16:43:08.847Z,156284.09
2022-07-26T16:45:40.905Z,156206.00
2022-07-26T16:48:08.400Z,156215.13
2022-07-26T16:50:35.942Z,156222.91
2022-07-26T16:53:03.519Z,156176.06
2022-07-26T16:55:30.941Z,156159.19
2022-07-26T16:57:58.473Z,156155.28
2022-07-26T17:00:25.942Z,156170.91
2022-07-26T17:02:55.419Z,156215.13
2022-07-26T17:05:22.847Z,156182.59
2022-07-26T17:07:50.271Z,156243.72
2022-07-26T17:10:18.186Z,156209.91
2022-07-26T17:12:45.605Z,156269.81
2022-07-26T17:15:14.754Z,156225.53
2022-07-26T17:17:46.904Z,156189.06
2022-07-26T17:20:18.260Z,156138.38
2022-07-26T17:22:45.766Z,156142.28
2022-07-26T17:25:13.275Z,156170.91
2022-07-26T17:27:40.754Z,156131.88
2022-07-26T17:30:09.879Z,156075.91
2022-07-26T17:32:37.993Z,156074.59
2022-07-26T17:35:06.319Z,156083.75
2022-07-26T17:37:35.828Z,156056.38
2022-07-26T17:40:03.865Z,156072.00
2022-07-26T17:42:31.277Z,156017.38
2022-07-26T17:44:58.675Z,156009.59
2022-07-26T17:47:29.371Z,156027.78
2022-07-26T17:50:14.052Z,156030.38
2022-07-26T17:52:48.245Z,156046.00
2022-07-26T17:55:16.200Z,156051.22
2022-07-26T17:57:43.683Z,156009.59
2022-07-26T18:00:12.133Z,155981.00
2022-07-26T18:02:39.776Z,156014.78
2022-07-26T18:05:07.643Z,155964.09
2022-07-26T18:07:35.100Z,155988.78
2022-07-26T18:10:04.525Z,155957.59
2022-07-26T18:12:31.952Z,155923.78
2022-07-26T18:14:59.421Z,155970.59
2022-07-26T18:17:26.826Z,155949.78
2022-07-26T18:19:54.237Z,155923.78
2022-07-26T18:22:23.119Z,155952.38
2022-07-26T18:24:50.581Z,155938.09
2022-07-26T18:27:19.552Z,155891.22
2022-07-26T18:29:47.120Z,155853.53
2022-07-26T18:32:15.164Z,155873.06
2022-07-26T18:34:51.522Z,155860.06
2022-07-26T18:37:20.341Z,155845.75
2022-07-26T18:39:47.975Z,155861.38
2022-07-26T18:42:15.591Z,155854.84
2022-07-26T18:44:44.755Z,155827.56
2022-07-26T18:47:12.167Z,155770.38
2022-07-26T18:49:39.681Z,155772.97
2022-07-26T18:52:08.819Z,155767.75
2022-07-26T18:54:36.690Z,155772.97
2022-07-26T18:57:04.262Z,155723.63
2022-07-26T18:59:31.906Z,155744.38
2022-07-26T19:02:00.786Z,155748.28
2022-07-26T19:04:29.029Z,155704.06
2022-07-26T19:06:56.722Z,155747.00
2022-07-26T19:09:24.192Z,155682.00
2022-07-26T19:11:51.631Z,155676.78
2022-07-26T19:14:19.121Z,155669.00
2022-07-26T19:16:46.610Z,155640.41
2022-07-26T19:19:15.924Z,155583.25
2022-07-26T19:21:46.416Z,155617.06
2022-07-26T19:24:14.314Z,155619.63
2022-07-26T19:26:41.889Z,155631.34
2022-07-26T19:29:09.614Z,155609.22
2022-07-26T19:31:40.121Z,155598.84
2022-07-26T19:34:07.635Z,155570.28
2022-07-26T19:36:36.680Z,155570.28
2022-07-26T19:39:04.931Z,155552.09
2022-07-26T19:41:32.490Z,155575.50
2022-07-26T19:44:00.011Z,155546.91
2022-07-26T19:46:27.478Z,155515.72
2022-07-26T19:48:55.718Z,155528.72
2022-07-26T19:51:23.533Z,155487.13
2022-07-26T19:53:52.287Z,155535.25
2022-07-26T19:56:19.726Z,155514.44
2022-07-26T19:58:47.178Z,155523.50
2022-07-26T20:01:14.686Z,155515.72
2022-07-26T20:03:42.355Z,155528.72
2022-07-26T20:06:09.938Z,155501.41
2022-07-26T20:08:37.384Z,155509.25
2022-07-26T20:11:06.239Z,155465.06
2022-07-26T20:13:33.703Z,155497.50
2022-07-26T20:16:02.879Z,155463.75
2022-07-26T20:18:30.827Z,155452.09
2022-07-26T20:20:58.515Z,155476.75
2022-07-26T20:23:27.902Z,155463.75
2022-07-26T20:25:55.606Z,155455.94
2022-07-26T20:28:24.338Z,155432.59
2022-07-26T20:30:53.282Z,155465.06
2022-07-26T20:33:20.783Z,155437.78
2022-07-26T20:35:52.976Z,155437.78
2022-07-26T20:38:22.330Z,155396.25
2022-07-26T20:40:49.874Z,155391.03
2022-07-26T20:43:17.988Z,155387.19
2022-07-26T20:45:46.815Z,155414.44
2022-07-26T20:48:14.491Z,155388.44
2022-07-26T20:50:41.950Z,155370.28
2022-07-26T20:53:09.489Z,155359.94
2022-07-26T20:55:37.001Z,155335.22
2022-07-26T20:58:04.461Z,155333.91
2022-07-26T21:00:31.886Z,155331.38
2022-07-26T21:03:01.529Z,155354.72
2022-07-26T21:05:32.506Z,155393.66
2022-07-26T21:08:00.450Z,155323.56
2022-07-26T21:10:28.952Z,155344.34
2022-07-26T21:13:00.162Z,155359.94
2022-07-26T21:15:27.741Z,155372.91
2022-07-26T21:17:55.142Z,155376.75
2022-07-26T21:20:23.984Z,155401.41
2022-07-26T21:22:51.492Z,155409.22
2022-07-26T21:25:18.931Z,155344.34
2022-07-26T21:27:46.416Z,155333.91
2022-07-26T21:30:14.351Z,155367.69
2022-07-26T21:32:41.859Z,155366.38
2022-07-26T21:35:09.371Z,155359.94
2022-07-26T21:37:38.098Z,155305.41
2022-07-26T21:40:06.645Z,155332.66
2022-07-26T21:42:35.091Z,155366.38
2022-07-26T21:45:02.636Z,155341.72
2022-07-26T21:47:30.041Z,155297.53
2022-07-26T21:49:57.495Z,155324.84
2022-07-26T21:52:24.919Z,155362.47
2022-07-26T21:54:53.697Z,155357.31
2022-07-26T21:57:21.109Z,155363.78
2022-07-26T21:59:48.562Z,155370.28
2022-07-26T22:02:16.131Z,155391.03
2022-07-26T22:04:47.639Z,155335.22
2022-07-26T22:07:15.041Z,155326.16
2022-07-26T22:09:42.589Z,155288.47
2022-07-26T22:12:11.608Z,155288.47
2022-07-26T22:14:39.071Z,155333.91
2022-07-26T22:17:06.481Z,155323.56
2022-07-26T22:19:33.918Z,155262.53
2022-07-26T22:22:02.367Z,155294.94
2022-07-26T22:24:29.880Z,155288.47
2022-07-26T22:26:57.291Z,155304.09
2022-07-26T22:29:26.069Z,155269.00
2022-07-26T22:32:03.205Z,155271.59
2022-07-26T22:34:30.666Z,155256.00
2022-07-26T22:36:58.461Z,155292.38
2022-07-26T22:39:25.895Z,155248.25
2022-07-26T22:42:14.176Z,155197.66
2022-07-26T22:44:42.021Z,155261.22
2022-07-26T22:47:09.447Z,155245.66
2022-07-26T22:49:36.933Z,155223.59
2022-07-26T22:52:04.569Z,155227.47
2022-07-26T22:54:31.978Z,155237.88
2022-07-26T22:56:59.415Z,155274.19
2022-07-26T22:59:27.042Z,155208.03
2022-07-26T23:01:56.616Z,155235.28
2022-07-26T23:04:24.105Z,155201.53
2022-07-26T23:06:52.201Z,155205.44
2022-07-26T23:09:22.294Z,155174.28
2022-07-26T23:11:49.723Z,155172.97
2022-07-26T23:14:17.171Z,155153.53
2022-07-26T23:16:44.617Z,155105.50
2022-07-26T23:19:13.962Z,155214.50
2022-07-26T23:21:41.800Z,155187.25
2022-07-26T23:24:09.656Z,155204.13
2022-07-26T23:26:37.261Z,155147.03
2022-07-26T23:29:04.980Z,155170.41
2022-07-26T23:31:32.594Z,155149.63
2022-07-26T23:34:00.076Z,155147.03
2022-07-26T23:36:29.562Z,155228.78
2022-07-26T23:38:58.257Z,155213.19
2022-07-26T23:41:26.142Z,155221.00
2022-07-26T23:43:54.110Z,155167.81
2022-07-26T23:46:22.040Z,155126.31
2022-07-26T23:48:50.184Z,155162.59
2022-07-26T23:51:19.277Z,155106.81
2022-07-26T23:53:48.360Z,155149.63
2022-07-26T23:56:16.369Z,155131.47
2022-07-26T23:58:44.436Z,155139.25
